sensor_id;sensor_type;location;lat;lon;timestamp;P1;durP1;ratioP1;P2;durP2;ratioP2
73113;SDS011;61301;51.956;5.876;2023-11-22T00:01:04;3.22;;;2.83;;
73113;SDS011;61301;51.956;5.876;2023-11-22T00:03:31;5.70;;;4.60;;
73113;SDS011;61301;51.956;5.876;2023-11-22T00:05:57;6.75;;;5.90;;
73113;SDS011;61301;51.956;5.876;2023-11-22T00:08:24;8.88;;;7.63;;
73113;SDS011;61301;51.956;5.876;2023-11-22T00:10:50;8.82;;;6.97;;
73113;SDS011;61301;51.956;5.876;2023-11-22T00:13:16;8.63;;;6.80;;
73113;SDS011;61301;51.956;5.876;2023-11-22T00:15:42;7.75;;;6.03;;
73113;SDS011;61301;51.956;5.876;2023-11-22T00:18:08;7.38;;;5.85;;
73113;SDS011;61301;51.956;5.876;2023-11-22T00:20:34;7.68;;;6.20;;
73113;SDS011;61301;51.956;5.876;2023-11-22T00:23:00;6.43;;;5.47;;
73113;SDS011;61301;51.956;5.876;2023-11-22T00:25:25;6.70;;;5.40;;
73113;SDS011;61301;51.956;5.876;2023-11-22T00:27:51;6.57;;;5.65;;
73113;SDS011;61301;51.956;5.876;2023-11-22T00:30:17;6.18;;;4.85;;
73113;SDS011;61301;51.956;5.876;2023-11-22T00:32:44;6.15;;;4.88;;
73113;SDS011;61301;51.956;5.876;2023-11-22T00:35:10;4.65;;;3.55;;
73113;SDS011;61301;51.956;5.876;2023-11-22T00:37:36;5.50;;;4.35;;
73113;SDS011;61301;51.956;5.876;2023-11-22T00:40:02;9.63;;;6.07;;
73113;SDS011;61301;51.956;5.876;2023-11-22T00:45:03;7.35;;;6.15;;
73113;SDS011;61301;51.956;5.876;2023-11-22T00:47:31;6.85;;;5.53;;
73113;SDS011;61301;51.956;5.876;2023-11-22T00:49:58;8.30;;;6.05;;
73113;SDS011;61301;51.956;5.876;2023-11-22T00:52:25;7.80;;;5.53;;
73113;SDS011;61301;51.956;5.876;2023-11-22T00:54:51;6.72;;;5.47;;
73113;SDS011;61301;51.956;5.876;2023-11-22T00:57:17;6.57;;;5.18;;
73113;SDS011;61301;51.956;5.876;2023-11-22T00:59:43;6.78;;;5.35;;
73113;SDS011;61301;51.956;5.876;2023-11-22T01:02:09;5.95;;;5.18;;
73113;SDS011;61301;51.956;5.876;2023-11-22T01:04:35;8.10;;;6.38;;
73113;SDS011;61301;51.956;5.876;2023-11-22T01:07:02;7.90;;;6.93;;
73113;SDS011;61301;51.956;5.876;2023-11-22T01:09:32;8.77;;;6.75;;
73113;SDS011;61301;51.956;5.876;2023-11-22T01:11:59;10.82;;;8.02;;
73113;SDS011;61301;51.956;5.876;2023-11-22T01:14:25;8.60;;;6.70;;
73113;SDS011;61301;51.956;5.876;2023-11-22T01:16:55;12.50;;;7.00;;
73113;SDS011;61301;51.956;5.876;2023-11-22T01:19:21;9.75;;;7.85;;
73113;SDS011;61301;51.956;5.876;2023-11-22T01:21:47;9.82;;;7.22;;
73113;SDS011;61301;51.956;5.876;2023-11-22T01:24:13;8.45;;;6.82;;
73113;SDS011;61301;51.956;5.876;2023-11-22T01:26:39;6.68;;;5.38;;
73113;SDS011;61301;51.956;5.876;2023-11-22T01:29:05;8.50;;;6.40;;
73113;SDS011;61301;51.956;5.876;2023-11-22T01:31:31;8.90;;;7.18;;
73113;SDS011;61301;51.956;5.876;2023-11-22T01:33:58;9.25;;;7.28;;
73113;SDS011;61301;51.956;5.876;2023-11-22T01:36:27;8.60;;;6.68;;
73113;SDS011;61301;51.956;5.876;2023-11-22T01:38:54;7.32;;;6.22;;
73113;SDS011;61301;51.956;5.876;2023-11-22T01:41:21;7.63;;;5.72;;
73113;SDS011;61301;51.956;5.876;2023-11-22T01:43:48;7.20;;;5.72;;
73113;SDS011;61301;51.956;5.876;2023-11-22T01:46:23;8.20;;;5.53;;
73113;SDS011;61301;51.956;5.876;2023-11-22T01:48:51;10.02;;;5.85;;
73113;SDS011;61301;51.956;5.876;2023-11-22T01:51:22;7.75;;;6.13;;
73113;SDS011;61301;51.956;5.876;2023-11-22T01:53:50;7.78;;;6.22;;
73113;SDS011;61301;51.956;5.876;2023-11-22T01:56:21;7.95;;;5.50;;
73113;SDS011;61301;51.956;5.876;2023-11-22T01:58:48;5.57;;;4.28;;
73113;SDS011;61301;51.956;5.876;2023-11-22T02:01:15;5.15;;;3.97;;
73113;SDS011;61301;51.956;5.876;2023-11-22T02:03:41;5.28;;;3.75;;
73113;SDS011;61301;51.956;5.876;2023-11-22T02:06:07;4.63;;;3.55;;
73113;SDS011;61301;51.956;5.876;2023-11-22T02:08:35;4.82;;;3.63;;
73113;SDS011;61301;51.956;5.876;2023-11-22T02:11:01;6.03;;;3.70;;
73113;SDS011;61301;51.956;5.876;2023-11-22T02:13:31;3.50;;;3.20;;
73113;SDS011;61301;51.956;5.876;2023-11-22T02:15:57;3.30;;;2.58;;
73113;SDS011;61301;51.956;5.876;2023-11-22T02:18:28;3.85;;;3.13;;
73113;SDS011;61301;51.956;5.876;2023-11-22T02:20:55;4.18;;;3.17;;
73113;SDS011;61301;51.956;5.876;2023-11-22T02:23:22;4.53;;;3.40;;
73113;SDS011;61301;51.956;5.876;2023-11-22T02:25:48;3.97;;;3.08;;
73113;SDS011;61301;51.956;5.876;2023-11-22T02:28:14;5.95;;;4.18;;
73113;SDS011;61301;51.956;5.876;2023-11-22T02:30:40;4.63;;;3.70;;
73113;SDS011;61301;51.956;5.876;2023-11-22T02:33:07;5.20;;;3.65;;
73113;SDS011;61301;51.956;5.876;2023-11-22T02:35:33;4.57;;;3.72;;
73113;SDS011;61301;51.956;5.876;2023-11-22T02:37:59;5.05;;;3.80;;
73113;SDS011;61301;51.956;5.876;2023-11-22T02:40:26;4.40;;;3.67;;
73113;SDS011;61301;51.956;5.876;2023-11-22T02:42:53;5.95;;;4.45;;
73113;SDS011;61301;51.956;5.876;2023-11-22T02:45:20;6.10;;;4.75;;
73113;SDS011;61301;51.956;5.876;2023-11-22T02:47:52;5.72;;;4.47;;
73113;SDS011;61301;51.956;5.876;2023-11-22T02:50:18;5.47;;;4.57;;
73113;SDS011;61301;51.956;5.876;2023-11-22T02:52:44;5.53;;;3.95;;
73113;SDS011;61301;51.956;5.876;2023-11-22T02:55:10;4.93;;;3.47;;
73113;SDS011;61301;51.956;5.876;2023-11-22T02:57:36;5.03;;;3.55;;
73113;SDS011;61301;51.956;5.876;2023-11-22T03:00:03;5.32;;;4.50;;
73113;SDS011;61301;51.956;5.876;2023-11-22T03:02:30;5.57;;;4.18;;
73113;SDS011;61301;51.956;5.876;2023-11-22T03:04:57;5.47;;;4.15;;
73113;SDS011;61301;51.956;5.876;2023-11-22T03:07:24;7.50;;;5.72;;
73113;SDS011;61301;51.956;5.876;2023-11-22T03:09:51;10.13;;;6.50;;
73113;SDS011;61301;51.956;5.876;2023-11-22T03:12:18;9.07;;;6.85;;
73113;SDS011;61301;51.956;5.876;2023-11-22T03:14:46;9.93;;;7.18;;
73113;SDS011;61301;51.956;5.876;2023-11-22T03:17:14;7.65;;;5.72;;
73113;SDS011;61301;51.956;5.876;2023-11-22T03:19:40;7.55;;;5.95;;
73113;SDS011;61301;51.956;5.876;2023-11-22T03:22:06;6.78;;;5.22;;
73113;SDS011;61301;51.956;5.876;2023-11-22T03:24:33;9.63;;;5.75;;
73113;SDS011;61301;51.956;5.876;2023-11-22T03:27:00;5.75;;;4.70;;
73113;SDS011;61301;51.956;5.876;2023-11-22T03:29:26;5.25;;;4.43;;
73113;SDS011;61301;51.956;5.876;2023-11-22T03:31:54;6.25;;;4.43;;
73113;SDS011;61301;51.956;5.876;2023-11-22T03:34:20;4.85;;;3.50;;
73113;SDS011;61301;51.956;5.876;2023-11-22T03:36:47;5.88;;;4.15;;
73113;SDS011;61301;51.956;5.876;2023-11-22T03:39:15;5.88;;;4.63;;
73113;SDS011;61301;51.956;5.876;2023-11-22T03:41:42;6.57;;;4.57;;
73113;SDS011;61301;51.956;5.876;2023-11-22T03:44:08;5.57;;;4.05;;
73113;SDS011;61301;51.956;5.876;2023-11-22T03:46:35;6.72;;;4.70;;
73113;SDS011;61301;51.956;5.876;2023-11-22T03:49:06;7.18;;;6.07;;
73113;SDS011;61301;51.956;5.876;2023-11-22T03:51:34;7.55;;;5.25;;
73113;SDS011;61301;51.956;5.876;2023-11-22T03:54:04;9.38;;;7.25;;
73113;SDS011;61301;51.956;5.876;2023-11-22T03:56:30;8.25;;;5.82;;
73113;SDS011;61301;51.956;5.876;2023-11-22T03:58:57;7.07;;;5.47;;
73113;SDS011;61301;51.956;5.876;2023-11-22T04:01:23;5.88;;;4.80;;
73113;SDS011;61301;51.956;5.876;2023-11-22T04:03:49;7.55;;;5.07;;
73113;SDS011;61301;51.956;5.876;2023-11-22T04:06:16;6.38;;;4.82;;
73113;SDS011;61301;51.956;5.876;2023-11-22T04:08:42;5.40;;;4.03;;
73113;SDS011;61301;51.956;5.876;2023-11-22T04:11:09;5.57;;;3.67;;
73113;SDS011;61301;51.956;5.876;2023-11-22T04:13:36;5.05;;;3.85;;
73113;SDS011;61301;51.956;5.876;2023-11-22T04:16:03;6.25;;;4.22;;
73113;SDS011;61301;51.956;5.876;2023-11-22T04:18:29;5.65;;;4.50;;
73113;SDS011;61301;51.956;5.876;2023-11-22T04:20:55;5.55;;;3.83;;
73113;SDS011;61301;51.956;5.876;2023-11-22T04:23:23;5.93;;;4.68;;
73113;SDS011;61301;51.956;5.876;2023-11-22T04:25:49;4.63;;;3.80;;
73113;SDS011;61301;51.956;5.876;2023-11-22T04:28:15;4.90;;;4.18;;
73113;SDS011;61301;51.956;5.876;2023-11-22T04:30:42;3.75;;;3.20;;
73113;SDS011;61301;51.956;5.876;2023-11-22T04:33:08;4.28;;;2.75;;
73113;SDS011;61301;51.956;5.876;2023-11-22T04:35:34;2.88;;;2.42;;
73113;SDS011;61301;51.956;5.876;2023-11-22T04:38:02;3.63;;;2.45;;
73113;SDS011;61301;51.956;5.876;2023-11-22T04:40:29;4.90;;;3.40;;
73113;SDS011;61301;51.956;5.876;2023-11-22T04:42:55;7.07;;;4.88;;
73113;SDS011;61301;51.956;5.876;2023-11-22T04:45:21;6.72;;;5.32;;
73113;SDS011;61301;51.956;5.876;2023-11-22T04:47:48;6.75;;;5.00;;
73113;SDS011;61301;51.956;5.876;2023-11-22T04:50:14;6.00;;;4.15;;
73113;SDS011;61301;51.956;5.876;2023-11-22T04:52:40;5.60;;;3.92;;
73113;SDS011;61301;51.956;5.876;2023-11-22T04:55:06;4.22;;;3.15;;
73113;SDS011;61301;51.956;5.876;2023-11-22T04:57:32;3.20;;;2.75;;
73113;SDS011;61301;51.956;5.876;2023-11-22T04:59:59;3.63;;;2.70;;
73113;SDS011;61301;51.956;5.876;2023-11-22T05:02:26;2.25;;;1.60;;
73113;SDS011;61301;51.956;5.876;2023-11-22T05:04:55;3.67;;;2.60;;
73113;SDS011;61301;51.956;5.876;2023-11-22T05:07:22;5.85;;;4.57;;
73113;SDS011;61301;51.956;5.876;2023-11-22T05:09:48;6.18;;;4.03;;
73113;SDS011;61301;51.956;5.876;2023-11-22T05:12:14;5.90;;;4.15;;
73113;SDS011;61301;51.956;5.876;2023-11-22T05:14:40;6.03;;;4.28;;
73113;SDS011;61301;51.956;5.876;2023-11-22T05:17:09;3.90;;;2.80;;
73113;SDS011;61301;51.956;5.876;2023-11-22T05:19:35;5.43;;;4.22;;
73113;SDS011;61301;51.956;5.876;2023-11-22T05:22:00;7.93;;;5.60;;
73113;SDS011;61301;51.956;5.876;2023-11-22T05:24:26;5.88;;;4.22;;
73113;SDS011;61301;51.956;5.876;2023-11-22T05:26:52;4.00;;;3.47;;
73113;SDS011;61301;51.956;5.876;2023-11-22T05:29:18;3.33;;;2.60;;
73113;SDS011;61301;51.956;5.876;2023-11-22T05:31:44;3.45;;;2.60;;
73113;SDS011;61301;51.956;5.876;2023-11-22T05:34:10;3.55;;;2.35;;
73113;SDS011;61301;51.956;5.876;2023-11-22T05:36:36;3.05;;;2.35;;
73113;SDS011;61301;51.956;5.876;2023-11-22T05:39:02;3.00;;;2.20;;
73113;SDS011;61301;51.956;5.876;2023-11-22T05:41:29;2.42;;;2.00;;
73113;SDS011;61301;51.956;5.876;2023-11-22T05:43:55;3.42;;;2.38;;
73113;SDS011;61301;51.956;5.876;2023-11-22T05:46:22;3.22;;;2.38;;
73113;SDS011;61301;51.956;5.876;2023-11-22T05:48:50;2.65;;;1.80;;
73113;SDS011;61301;51.956;5.876;2023-11-22T05:51:17;2.22;;;1.60;;
73113;SDS011;61301;51.956;5.876;2023-11-22T05:53:43;2.28;;;1.83;;
73113;SDS011;61301;51.956;5.876;2023-11-22T05:56:09;2.13;;;1.73;;
73113;SDS011;61301;51.956;5.876;2023-11-22T05:58:35;1.95;;;1.40;;
73113;SDS011;61301;51.956;5.876;2023-11-22T06:01:04;2.28;;;1.85;;
73113;SDS011;61301;51.956;5.876;2023-11-22T06:03:31;2.35;;;1.98;;
73113;SDS011;61301;51.956;5.876;2023-11-22T06:05:59;2.15;;;1.70;;
73113;SDS011;61301;51.956;5.876;2023-11-22T06:08:25;3.95;;;2.58;;
73113;SDS011;61301;51.956;5.876;2023-11-22T06:10:51;3.75;;;3.15;;
73113;SDS011;61301;51.956;5.876;2023-11-22T06:13:18;7.65;;;5.93;;
73113;SDS011;61301;51.956;5.876;2023-11-22T06:15:45;5.78;;;4.05;;
73113;SDS011;61301;51.956;5.876;2023-11-22T06:18:11;6.47;;;4.50;;
73113;SDS011;61301;51.956;5.876;2023-11-22T06:20:39;5.47;;;4.60;;
73113;SDS011;61301;51.956;5.876;2023-11-22T06:23:05;5.28;;;3.00;;
73113;SDS011;61301;51.956;5.876;2023-11-22T06:25:32;3.30;;;2.38;;
73113;SDS011;61301;51.956;5.876;2023-11-22T06:27:58;3.08;;;2.05;;
73113;SDS011;61301;51.956;5.876;2023-11-22T06:30:24;2.22;;;1.70;;
73113;SDS011;61301;51.956;5.876;2023-11-22T06:32:51;2.78;;;1.85;;
73113;SDS011;61301;51.956;5.876;2023-11-22T06:35:17;3.42;;;2.50;;
73113;SDS011;61301;51.956;5.876;2023-11-22T06:37:43;2.13;;;1.73;;
73113;SDS011;61301;51.956;5.876;2023-11-22T06:40:10;2.35;;;1.80;;
73113;SDS011;61301;51.956;5.876;2023-11-22T06:42:40;2.13;;;1.50;;
73113;SDS011;61301;51.956;5.876;2023-11-22T06:45:07;2.15;;;1.40;;
73113;SDS011;61301;51.956;5.876;2023-11-22T06:47:38;1.95;;;1.60;;
73113;SDS011;61301;51.956;5.876;2023-11-22T06:50:05;3.05;;;1.95;;
73113;SDS011;61301;51.956;5.876;2023-11-22T06:52:35;2.25;;;1.20;;
73113;SDS011;61301;51.956;5.876;2023-11-22T06:55:02;4.13;;;2.60;;
73113;SDS011;61301;51.956;5.876;2023-11-22T06:57:28;2.20;;;1.60;;
73113;SDS011;61301;51.956;5.876;2023-11-22T06:59:55;2.08;;;1.50;;
73113;SDS011;61301;51.956;5.876;2023-11-22T07:02:21;3.25;;;2.50;;
73113;SDS011;61301;51.956;5.876;2023-11-22T07:04:47;9.25;;;7.35;;
73113;SDS011;61301;51.956;5.876;2023-11-22T07:07:14;9.95;;;7.57;;
73113;SDS011;61301;51.956;5.876;2023-11-22T07:09:43;7.60;;;6.05;;
73113;SDS011;61301;51.956;5.876;2023-11-22T07:12:10;6.60;;;5.20;;
73113;SDS011;61301;51.956;5.876;2023-11-22T07:14:36;5.22;;;3.70;;
73113;SDS011;61301;51.956;5.876;2023-11-22T07:17:02;5.85;;;4.57;;
73113;SDS011;61301;51.956;5.876;2023-11-22T07:19:31;5.82;;;3.60;;
73113;SDS011;61301;51.956;5.876;2023-11-22T07:21:57;4.20;;;3.30;;
73113;SDS011;61301;51.956;5.876;2023-11-22T07:24:23;3.45;;;2.97;;
73113;SDS011;61301;51.956;5.876;2023-11-22T07:26:49;2.95;;;2.15;;
73113;SDS011;61301;51.956;5.876;2023-11-22T07:29:15;3.30;;;2.20;;
73113;SDS011;61301;51.956;5.876;2023-11-22T07:31:41;1.63;;;1.42;;
73113;SDS011;61301;51.956;5.876;2023-11-22T07:34:08;2.05;;;1.50;;
73113;SDS011;61301;51.956;5.876;2023-11-22T07:36:38;2.70;;;1.80;;
73113;SDS011;61301;51.956;5.876;2023-11-22T07:39:05;3.53;;;2.97;;
73113;SDS011;61301;51.956;5.876;2023-11-22T07:41:31;6.53;;;5.03;;
73113;SDS011;61301;51.956;5.876;2023-11-22T07:44:00;6.60;;;5.18;;
73113;SDS011;61301;51.956;5.876;2023-11-22T07:46:26;6.40;;;4.85;;
73113;SDS011;61301;51.956;5.876;2023-11-22T07:48:53;4.90;;;3.72;;
73113;SDS011;61301;51.956;5.876;2023-11-22T07:51:19;3.65;;;3.13;;
73113;SDS011;61301;51.956;5.876;2023-11-22T07:53:45;2.97;;;2.53;;
73113;SDS011;61301;51.956;5.876;2023-11-22T07:56:11;3.28;;;2.40;;
73113;SDS011;61301;51.956;5.876;2023-11-22T07:58:37;3.00;;;2.30;;
73113;SDS011;61301;51.956;5.876;2023-11-22T08:01:03;11.70;;;7.63;;
73113;SDS011;61301;51.956;5.876;2023-11-22T08:03:30;15.85;;;10.60;;
73113;SDS011;61301;51.956;5.876;2023-11-22T08:05:56;13.55;;;9.98;;
73113;SDS011;61301;51.956;5.876;2023-11-22T08:08:23;15.18;;;10.43;;
73113;SDS011;61301;51.956;5.876;2023-11-22T08:10:50;10.30;;;8.20;;
73113;SDS011;61301;51.956;5.876;2023-11-22T08:13:19;9.23;;;7.28;;
73113;SDS011;61301;51.956;5.876;2023-11-22T08:15:48;10.00;;;6.75;;
73113;SDS011;61301;51.956;5.876;2023-11-22T08:18:14;7.43;;;5.57;;
73113;SDS011;61301;51.956;5.876;2023-11-22T08:20:42;7.05;;;5.22;;
73113;SDS011;61301;51.956;5.876;2023-11-22T08:23:09;6.65;;;4.85;;
73113;SDS011;61301;51.956;5.876;2023-11-22T08:25:36;12.20;;;8.77;;
73113;SDS011;61301;51.956;5.876;2023-11-22T08:28:04;13.68;;;10.50;;
73113;SDS011;61301;51.956;5.876;2023-11-22T08:30:33;10.55;;;8.25;;
73113;SDS011;61301;51.956;5.876;2023-11-22T08:33:01;11.38;;;8.95;;
73113;SDS011;61301;51.956;5.876;2023-11-22T08:35:27;10.70;;;8.05;;
73113;SDS011;61301;51.956;5.876;2023-11-22T08:37:53;12.18;;;9.65;;
73113;SDS011;61301;51.956;5.876;2023-11-22T08:40:23;12.05;;;9.48;;
73113;SDS011;61301;51.956;5.876;2023-11-22T08:42:49;11.90;;;10.00;;
73113;SDS011;61301;51.956;5.876;2023-11-22T08:45:15;13.38;;;10.15;;
73113;SDS011;61301;51.956;5.876;2023-11-22T08:47:41;15.70;;;12.57;;
73113;SDS011;61301;51.956;5.876;2023-11-22T08:50:08;15.80;;;10.52;;
73113;SDS011;61301;51.956;5.876;2023-11-22T08:52:38;13.57;;;9.98;;
73113;SDS011;61301;51.956;5.876;2023-11-22T08:55:07;13.15;;;10.45;;
73113;SDS011;61301;51.956;5.876;2023-11-22T08:57:37;11.38;;;8.85;;
73113;SDS011;61301;51.956;5.876;2023-11-22T09:00:03;11.43;;;8.70;;
73113;SDS011;61301;51.956;5.876;2023-11-22T09:02:35;15.55;;;11.40;;
73113;SDS011;61301;51.956;5.876;2023-11-22T09:05:02;19.42;;;12.35;;
73113;SDS011;61301;51.956;5.876;2023-11-22T09:07:34;16.45;;;13.30;;
73113;SDS011;61301;51.956;5.876;2023-11-22T09:10:02;21.08;;;14.93;;
73113;SDS011;61301;51.956;5.876;2023-11-22T09:12:48;18.20;;;12.50;;
73113;SDS011;61301;51.956;5.876;2023-11-22T09:15:15;16.20;;;12.82;;
73113;SDS011;61301;51.956;5.876;2023-11-22T09:17:51;16.85;;;12.00;;
73113;SDS011;61301;51.956;5.876;2023-11-22T09:20:19;18.60;;;14.07;;
73113;SDS011;61301;51.956;5.876;2023-11-22T09:22:46;19.10;;;13.73;;
73113;SDS011;61301;51.956;5.876;2023-11-22T09:25:14;16.65;;;13.10;;
73113;SDS011;61301;51.956;5.876;2023-11-22T09:27:47;16.55;;;13.00;;
73113;SDS011;61301;51.956;5.876;2023-11-22T09:30:19;20.20;;;13.98;;
73113;SDS011;61301;51.956;5.876;2023-11-22T09:33:00;18.83;;;13.25;;
73113;SDS011;61301;51.956;5.876;2023-11-22T09:35:27;18.83;;;14.70;;
73113;SDS011;61301;51.956;5.876;2023-11-22T09:38:00;17.52;;;13.35;;
73113;SDS011;61301;51.956;5.876;2023-11-22T09:40:27;18.30;;;12.73;;
73113;SDS011;61301;51.956;5.876;2023-11-22T09:42:58;19.65;;;14.25;;
73113;SDS011;61301;51.956;5.876;2023-11-22T09:45:26;20.27;;;15.93;;
73113;SDS011;61301;51.956;5.876;2023-11-22T09:47:52;25.38;;;15.88;;
73113;SDS011;61301;51.956;5.876;2023-11-22T09:51:01;21.38;;;14.85;;
73113;SDS011;61301;51.956;5.876;2023-11-22T09:53:32;20.48;;;14.20;;
73113;SDS011;61301;51.956;5.876;2023-11-22T09:56:01;21.17;;;15.27;;
73113;SDS011;61301;51.956;5.876;2023-11-22T09:58:32;22.27;;;17.50;;
73113;SDS011;61301;51.956;5.876;2023-11-22T10:00:59;26.30;;;16.63;;
73113;SDS011;61301;51.956;5.876;2023-11-22T10:03:26;23.95;;;17.13;;
73113;SDS011;61301;51.956;5.876;2023-11-22T10:05:55;18.42;;;13.65;;
73113;SDS011;61301;51.956;5.876;2023-11-22T10:08:23;20.92;;;15.93;;
73113;SDS011;61301;51.956;5.876;2023-11-22T10:10:49;24.40;;;16.20;;
73113;SDS011;61301;51.956;5.876;2023-11-22T10:13:17;18.83;;;15.05;;
73113;SDS011;61301;51.956;5.876;2023-11-22T10:15:46;17.40;;;14.15;;
73113;SDS011;61301;51.956;5.876;2023-11-22T10:18:13;20.08;;;15.10;;
73113;SDS011;61301;51.956;5.876;2023-11-22T10:20:40;20.90;;;14.98;;
73113;SDS011;61301;51.956;5.876;2023-11-22T10:23:08;21.08;;;14.98;;
73113;SDS011;61301;51.956;5.876;2023-11-22T10:25:37;19.42;;;13.60;;
73113;SDS011;61301;51.956;5.876;2023-11-22T10:28:09;19.33;;;14.80;;
73113;SDS011;61301;51.956;5.876;2023-11-22T10:30:35;18.95;;;13.88;;
73113;SDS011;61301;51.956;5.876;2023-11-22T10:33:02;18.38;;;12.77;;
73113;SDS011;61301;51.956;5.876;2023-11-22T10:35:29;15.52;;;11.60;;
73113;SDS011;61301;51.956;5.876;2023-11-22T10:37:55;13.65;;;10.40;;
73113;SDS011;61301;51.956;5.876;2023-11-22T10:40:21;18.52;;;13.30;;
73113;SDS011;61301;51.956;5.876;2023-11-22T10:42:47;16.77;;;12.80;;
73113;SDS011;61301;51.956;5.876;2023-11-22T10:45:17;15.65;;;12.82;;
73113;SDS011;61301;51.956;5.876;2023-11-22T10:47:44;17.63;;;12.43;;
73113;SDS011;61301;51.956;5.876;2023-11-22T10:50:11;15.65;;;12.25;;
73113;SDS011;61301;51.956;5.876;2023-11-22T10:52:39;14.30;;;10.85;;
73113;SDS011;61301;51.956;5.876;2023-11-22T10:55:07;15.75;;;11.88;;
73113;SDS011;61301;51.956;5.876;2023-11-22T10:57:38;15.23;;;12.20;;
73113;SDS011;61301;51.956;5.876;2023-11-22T11:00:09;13.88;;;10.32;;
73113;SDS011;61301;51.956;5.876;2023-11-22T11:02:40;16.13;;;11.27;;
73113;SDS011;61301;51.956;5.876;2023-11-22T11:05:14;16.90;;;12.43;;
73113;SDS011;61301;51.956;5.876;2023-11-22T11:07:49;16.35;;;11.93;;
73113;SDS011;61301;51.956;5.876;2023-11-22T11:10:20;13.00;;;10.55;;
73113;SDS011;61301;51.956;5.876;2023-11-22T11:12:49;16.00;;;11.10;;
73113;SDS011;61301;51.956;5.876;2023-11-22T11:15:16;15.35;;;12.07;;
73113;SDS011;61301;51.956;5.876;2023-11-22T11:17:43;14.95;;;11.95;;
73113;SDS011;61301;51.956;5.876;2023-11-22T11:20:10;16.42;;;12.05;;
73113;SDS011;61301;51.956;5.876;2023-11-22T11:22:39;14.07;;;11.73;;
73113;SDS011;61301;51.956;5.876;2023-11-22T11:25:05;14.82;;;12.00;;
73113;SDS011;61301;51.956;5.876;2023-11-22T11:27:34;16.10;;;11.98;;
73113;SDS011;61301;51.956;5.876;2023-11-22T11:33:12;18.10;;;11.70;;
73113;SDS011;61301;51.956;5.876;2023-11-22T11:38:13;17.88;;;13.27;;
73113;SDS011;61301;51.956;5.876;2023-11-22T11:40:42;19.48;;;14.02;;
73113;SDS011;61301;51.956;5.876;2023-11-22T11:43:11;16.80;;;13.18;;
73113;SDS011;61301;51.956;5.876;2023-11-22T11:45:40;17.42;;;13.38;;
73113;SDS011;61301;51.956;5.876;2023-11-22T11:48:14;18.33;;;14.55;;
73113;SDS011;61301;51.956;5.876;2023-11-22T11:50:41;17.20;;;13.50;;
73113;SDS011;61301;51.956;5.876;2023-11-22T11:53:08;16.17;;;12.38;;
73113;SDS011;61301;51.956;5.876;2023-11-22T11:55:36;19.17;;;14.68;;
73113;SDS011;61301;51.956;5.876;2023-11-22T11:58:06;15.88;;;11.90;;
73113;SDS011;61301;51.956;5.876;2023-11-22T12:00:35;17.95;;;14.05;;
73113;SDS011;61301;51.956;5.876;2023-11-22T12:03:09;18.27;;;12.95;;
73113;SDS011;61301;51.956;5.876;2023-11-22T12:05:38;16.00;;;12.00;;
73113;SDS011;61301;51.956;5.876;2023-11-22T12:08:04;19.42;;;13.57;;
73113;SDS011;61301;51.956;5.876;2023-11-22T12:10:31;18.92;;;13.98;;
73113;SDS011;61301;51.956;5.876;2023-11-22T12:12:57;20.17;;;13.60;;
73113;SDS011;61301;51.956;5.876;2023-11-22T12:15:24;20.92;;;14.02;;
73113;SDS011;61301;51.956;5.876;2023-11-22T12:17:50;21.25;;;15.20;;
73113;SDS011;61301;51.956;5.876;2023-11-22T12:20:19;26.98;;;19.48;;
73113;SDS011;61301;51.956;5.876;2023-11-22T12:22:47;27.30;;;18.30;;
73113;SDS011;61301;51.956;5.876;2023-11-22T12:25:14;25.55;;;17.88;;
73113;SDS011;61301;51.956;5.876;2023-11-22T12:27:43;22.88;;;15.73;;
73113;SDS011;61301;51.956;5.876;2023-11-22T12:30:30;21.77;;;15.85;;
73113;SDS011;61301;51.956;5.876;2023-11-22T12:33:01;22.20;;;14.57;;
73113;SDS011;61301;51.956;5.876;2023-11-22T12:35:36;20.23;;;14.80;;
73113;SDS011;61301;51.956;5.876;2023-11-22T12:38:04;22.38;;;15.07;;
73113;SDS011;61301;51.956;5.876;2023-11-22T12:40:33;25.67;;;16.95;;
73113;SDS011;61301;51.956;5.876;2023-11-22T12:42:59;24.55;;;16.98;;
73113;SDS011;61301;51.956;5.876;2023-11-22T12:45:27;19.38;;;12.73;;
73113;SDS011;61301;51.956;5.876;2023-11-22T12:47:55;21.50;;;15.60;;
73113;SDS011;61301;51.956;5.876;2023-11-22T12:50:34;25.55;;;16.92;;
73113;SDS011;61301;51.956;5.876;2023-11-22T12:53:11;25.02;;;16.40;;
73113;SDS011;61301;51.956;5.876;2023-11-22T12:55:41;25.70;;;15.77;;
73113;SDS011;61301;51.956;5.876;2023-11-22T12:58:10;23.95;;;16.55;;
73113;SDS011;61301;51.956;5.876;2023-11-22T13:00:36;27.38;;;15.77;;
73113;SDS011;61301;51.956;5.876;2023-11-22T13:03:05;22.63;;;14.98;;
73113;SDS011;61301;51.956;5.876;2023-11-22T13:05:32;25.02;;;16.55;;
73113;SDS011;61301;51.956;5.876;2023-11-22T13:07:58;22.20;;;14.82;;
73113;SDS011;61301;51.956;5.876;2023-11-22T13:10:25;23.13;;;15.88;;
73113;SDS011;61301;51.956;5.876;2023-11-22T13:12:54;26.30;;;16.73;;
73113;SDS011;61301;51.956;5.876;2023-11-22T13:15:23;22.40;;;15.23;;
73113;SDS011;61301;51.956;5.876;2023-11-22T13:17:54;24.52;;;16.25;;
73113;SDS011;61301;51.956;5.876;2023-11-22T13:20:24;25.33;;;17.40;;
73113;SDS011;61301;51.956;5.876;2023-11-22T13:22:52;24.38;;;16.10;;
73113;SDS011;61301;51.956;5.876;2023-11-22T13:25:19;26.55;;;17.23;;
73113;SDS011;61301;51.956;5.876;2023-11-22T13:27:46;26.98;;;17.17;;
73113;SDS011;61301;51.956;5.876;2023-11-22T13:30:14;28.35;;;17.80;;
73113;SDS011;61301;51.956;5.876;2023-11-22T13:32:40;22.15;;;15.60;;
73113;SDS011;61301;51.956;5.876;2023-11-22T13:35:08;26.42;;;17.23;;
73113;SDS011;61301;51.956;5.876;2023-11-22T13:37:41;24.67;;;15.43;;
73113;SDS011;61301;51.956;5.876;2023-11-22T13:40:11;27.77;;;17.35;;
73113;SDS011;61301;51.956;5.876;2023-11-22T13:42:50;24.85;;;15.70;;
73113;SDS011;61301;51.956;5.876;2023-11-22T13:45:18;26.77;;;17.50;;
73113;SDS011;61301;51.956;5.876;2023-11-22T13:47:48;28.15;;;17.88;;
73113;SDS011;61301;51.956;5.876;2023-11-22T13:50:29;26.02;;;16.20;;
73113;SDS011;61301;51.956;5.876;2023-11-22T13:52:55;31.27;;;18.50;;
73113;SDS011;61301;51.956;5.876;2023-11-22T13:55:24;31.45;;;18.77;;
73113;SDS011;61301;51.956;5.876;2023-11-22T14:00:22;33.58;;;20.20;;
73113;SDS011;61301;51.956;5.876;2023-11-22T14:02:52;38.60;;;20.58;;
73113;SDS011;61301;51.956;5.876;2023-11-22T14:05:23;30.33;;;19.25;;
73113;SDS011;61301;51.956;5.876;2023-11-22T14:07:49;35.92;;;21.67;;
73113;SDS011;61301;51.956;5.876;2023-11-22T14:10:17;39.45;;;22.35;;
73113;SDS011;61301;51.956;5.876;2023-11-22T14:12:44;40.13;;;22.88;;
73113;SDS011;61301;51.956;5.876;2023-11-22T14:15:11;32.38;;;19.58;;
73113;SDS011;61301;51.956;5.876;2023-11-22T14:17:38;39.50;;;22.45;;
73113;SDS011;61301;51.956;5.876;2023-11-22T14:20:07;38.55;;;23.02;;
73113;SDS011;61301;51.956;5.876;2023-11-22T14:22:38;38.88;;;22.33;;
73113;SDS011;61301;51.956;5.876;2023-11-22T14:25:08;38.00;;;23.02;;
73113;SDS011;61301;51.956;5.876;2023-11-22T14:27:38;44.15;;;25.80;;
73113;SDS011;61301;51.956;5.876;2023-11-22T14:30:04;41.97;;;25.38;;
73113;SDS011;61301;51.956;5.876;2023-11-22T14:32:33;42.08;;;24.30;;
73113;SDS011;61301;51.956;5.876;2023-11-22T14:35:03;41.08;;;22.70;;
73113;SDS011;61301;51.956;5.876;2023-11-22T14:37:30;41.60;;;24.55;;
73113;SDS011;61301;51.956;5.876;2023-11-22T14:39:57;36.40;;;21.73;;
73113;SDS011;61301;51.956;5.876;2023-11-22T14:42:23;38.15;;;22.63;;
73113;SDS011;61301;51.956;5.876;2023-11-22T14:44:50;40.20;;;23.90;;
73113;SDS011;61301;51.956;5.876;2023-11-22T14:47:17;39.17;;;23.85;;
73113;SDS011;61301;51.956;5.876;2023-11-22T14:49:49;40.75;;;23.98;;